Time,TemperatureF,DewpointF,PressureIn,WindDirection,WindDirectionDegrees,WindSpeedMPH,WindSpeedGustMPH,Humidity,HourlyPrecipIn,Conditions,Clouds,dailyrainin,SoftwareType,DateUTC
2013-07-08 00:05:00,81.1,73.0,29.66,South,171,0.0,0.0,75,0.00,,,0.00,weatherlink.com 1.10,2013-07-08 05:05:00,
2013-07-08 00:20:00,81.1,73.0,29.66,South,171,0.0,0.0,75,0.00,,,0.00,weatherlink.com 1.10,2013-07-08 05:20:00,
2013-07-08 00:35:00,80.8,73.0,29.66,South,171,0.0,0.0,76,0.00,,,0.00,weatherlink.com 1.10,2013-07-08 05:35:00,
2013-07-08 00:50:00,80.7,73.0,29.67,South,171,0.0,0.0,76,0.00,,,0.00,weatherlink.com 1.10,2013-07-08 05:50:00,
2013-07-08 01:05:00,80.5,73.0,29.68,South,171,0.0,1.0,77,0.00,,,0.00,weatherlink.com 1.10,2013-07-08 06:05:00,
2013-07-08 01:20:00,80.3,74.0,29.67,South,171,0.0,0.0,80,0.00,,,0.00,weatherlink.com 1.10,2013-07-08 06:20:00,
2013-07-08 01:35:00,79.7,74.0,29.66,South,171,0.0,0.0,82,0.00,,,0.00,weatherlink.com 1.10,2013-07-08 06:35:00,
2013-07-08 01:50:00,79.0,74.0,29.66,South,171,0.0,0.0,84,0.00,,,0.00,weatherlink.com 1.10,2013-07-08 06:50:00,
2013-07-08 02:05:00,78.4,74.0,29.65,South,171,0.0,0.0,86,0.00,,,0.00,weatherlink.com 1.10,2013-07-08 07:05:00,
2013-07-08 02:20:00,78.0,74.0,29.65,South,171,0.0,0.0,87,0.00,,,0.00,weatherlink.com 1.10,2013-07-08 07:20:00,
2013-07-08 02:35:00,77.8,73.0,29.64,South,171,0.0,1.0,86,0.00,,,0.00,weatherlink.com 1.10,2013-07-08 07:35:00,
2013-07-08 02:50:00,78.1,72.0,29.64,South,183,0.0,2.0,82,0.00,,,0.00,weatherlink.com 1.10,2013-07-08 07:50:00,
2013-07-08 03:05:00,78.5,72.0,29.64,South,180,0.0,4.0,80,0.00,,,0.00,weatherlink.com 1.10,2013-07-08 08:05:00,
2013-07-08 03:20:00,78.7,71.0,29.64,South,186,0.0,1.0,78,0.00,,,0.00,weatherlink.com 1.10,2013-07-08 08:20:00,
2013-07-08 03:35:00,78.8,71.0,29.64,South,189,0.0,1.0,78,0.00,,,0.00,weatherlink.com 1.10,2013-07-08 08:35:00,
2013-07-08 03:50:00,78.7,71.0,29.64,SSW,198,0.0,1.0,77,0.00,,,0.00,weatherlink.com 1.10,2013-07-08 08:50:00,
2013-07-08 04:05:00,78.5,71.0,29.66,SSW,198,0.0,0.0,77,0.00,,,0.00,weatherlink.com 1.10,2013-07-08 09:05:00,
2013-07-08 04:20:00,77.9,71.0,29.66,SSW,198,0.0,0.0,78,0.00,,,0.00,weatherlink.com 1.10,2013-07-08 09:20:00,
2013-07-08 04:35:00,77.2,71.0,29.67,SSW,198,0.0,0.0,80,0.00,,,0.00,weatherlink.com 1.10,2013-07-08 09:35:00,
2013-07-08 04:50:00,76.7,69.0,29.67,SSW,208,0.0,0.0,78,0.00,,,0.00,weatherlink.com 1.10,2013-07-08 09:50:00,
2013-07-08 05:05:00,77.2,70.0,29.66,SW,221,1.0,1.0,77,0.00,,,0.00,weatherlink.com 1.10,2013-07-08 10:05:00,
2013-07-08 05:20:00,77.9,69.0,29.66,SW,229,0.0,1.0,73,0.00,,,0.00,weatherlink.com 1.10,2013-07-08 10:20:00,
2013-07-08 05:35:00,78.0,69.0,29.66,SW,229,0.0,0.0,74,0.00,,,0.00,weatherlink.com 1.10,2013-07-08 10:35:00,
2013-07-08 05:50:00,77.7,69.0,29.67,SW,229,0.0,0.0,74,0.00,,,0.00,weatherlink.com 1.10,2013-07-08 10:50:00,
2013-07-08 06:05:00,77.6,69.0,29.67,SW,230,0.0,0.0,75,0.00,,,0.00,weatherlink.com 1.10,2013-07-08 11:05:00,
2013-07-08 06:20:00,77.5,69.0,29.67,SW,230,0.0,0.0,75,0.00,,,0.00,weatherlink.com 1.10,2013-07-08 11:20:00,
2013-07-08 06:35:00,77.3,69.0,29.68,SW,230,0.0,0.0,76,0.00,,,0.00,weatherlink.com 1.10,2013-07-08 11:35:00,
2013-07-08 06:50:00,77.0,70.0,29.68,SW,230,0.0,0.0,79,0.00,,,0.00,weatherlink.com 1.10,2013-07-08 11:50:00,
2013-07-08 07:05:00,76.6,70.0,29.68,SW,230,0.0,0.0,81,0.00,,,0.00,weatherlink.com 1.10,2013-07-08 12:05:00,
2013-07-08 07:20:00,76.4,71.0,29.69,SW,230,0.0,0.0,83,0.00,,,0.00,weatherlink.com 1.10,2013-07-08 12:20:00,
2013-07-08 07:35:00,76.5,72.0,29.69,SW,230,0.0,0.0,85,0.00,,,0.00,weatherlink.com 1.10,2013-07-08 12:35:00,
2013-07-08 07:50:00,76.8,71.0,29.69,SW,230,0.0,0.0,83,0.00,,,0.00,weatherlink.com 1.10,2013-07-08 12:50:00,
2013-07-08 08:05:00,77.4,71.0,29.69,SW,230,0.0,0.0,81,0.00,,,0.00,weatherlink.com 1.10,2013-07-08 13:05:00,
2013-07-08 08:20:00,78.1,72.0,29.70,SW,230,0.0,0.0,81,0.00,,,0.00,weatherlink.com 1.10,2013-07-08 13:20:00,
2013-07-08 08:35:00,78.7,72.0,29.70,SW,230,0.0,0.0,80,0.00,,,0.00,weatherlink.com 1.10,2013-07-08 13:35:00,
2013-07-08 08:50:00,79.4,72.0,29.70,SW,230,0.0,0.0,77,0.00,,,0.00,weatherlink.com 1.10,2013-07-08 13:50:00,
2013-07-08 09:05:00,80.1,72.0,29.70,SW,230,0.0,0.0,75,0.00,,,0.00,weatherlink.com 1.10,2013-07-08 14:05:00,
2013-07-08 09:20:00,80.4,72.0,29.71,SW,230,0.0,0.0,75,0.00,,,0.00,weatherlink.com 1.10,2013-07-08 14:20:00,
2013-07-08 09:35:00,80.7,72.0,29.71,SW,230,0.0,0.0,75,0.00,,,0.00,weatherlink.com 1.10,2013-07-08 14:35:00,
2013-07-08 09:50:00,81.0,73.0,29.70,SW,230,0.0,0.0,76,0.00,,,0.00,weatherlink.com 1.10,2013-07-08 14:50:00,
2013-07-08 10:05:00,81.5,71.0,29.70,SW,230,0.0,0.0,71,0.00,,,0.00,weatherlink.com 1.10,2013-07-08 15:05:00,
2013-07-08 10:20:00,81.9,70.0,29.71,SSW,195,0.0,3.0,68,0.00,,,0.00,weatherlink.com 1.10,2013-07-08 15:20:00,
2013-07-08 10:36:00,83.0,71.0,29.71,West,265,0.0,5.0,67,0.00,,,0.00,weatherlink.com 1.10,2013-07-08 15:36:00,
2013-07-08 10:51:00,83.6,71.0,29.71,WSW,247,0.0,3.0,65,0.00,,,0.00,weatherlink.com 1.10,2013-07-08 15:51:00,
2013-07-08 11:06:00,84.3,71.0,29.71,SW,224,0.0,4.0,64,0.00,,,0.00,weatherlink.com 1.10,2013-07-08 16:06:00,
2013-07-08 11:21:00,84.2,71.0,29.71,SW,230,2.0,2.0,65,0.00,,,0.00,weatherlink.com 1.10,2013-07-08 16:21:00,
2013-07-08 11:36:00,85.2,72.0,29.71,SW,228,1.0,3.0,64,0.00,,,0.00,weatherlink.com 1.10,2013-07-08 16:36:00,
2013-07-08 11:51:00,86.5,72.0,29.71,South,188,0.0,6.0,63,0.00,,,0.00,weatherlink.com 1.10,2013-07-08 16:51:00,
2013-07-08 12:06:00,86.1,73.0,29.71,SE,124,0.0,4.0,64,0.00,,,0.00,weatherlink.com 1.10,2013-07-08 17:06:00,
2013-07-08 12:36:00,85.0,73.0,29.71,West,274,0.0,2.0,67,0.00,,,0.00,weatherlink.com 1.10,2013-07-08 17:36:00,
2013-07-08 12:51:00,84.6,72.0,29.71,SSW,212,0.0,5.0,67,0.00,,,0.00,weatherlink.com 1.10,2013-07-08 17:51:00,
2013-07-08 13:06:00,84.1,72.0,29.71,West,266,0.0,2.0,67,0.00,,,0.00,weatherlink.com 1.10,2013-07-08 18:06:00,
2013-07-08 13:36:00,85.2,72.0,29.71,SSW,204,1.0,2.0,65,0.00,,,0.00,weatherlink.com 1.10,2013-07-08 18:36:00,
2013-07-08 14:06:00,89.0,75.0,29.70,SW,217,0.0,6.0,63,0.00,,,0.00,weatherlink.com 1.10,2013-07-08 19:06:00,
2013-07-08 14:36:00,89.9,76.0,29.70,SSW,209,0.0,1.0,64,0.00,,,0.00,weatherlink.com 1.10,2013-07-08 19:36:00,
2013-07-08 14:51:00,89.9,74.0,29.70,SW,226,0.0,3.0,60,0.00,,,0.00,weatherlink.com 1.10,2013-07-08 19:51:00,
2013-07-08 15:06:00,89.7,74.0,29.69,West,271,0.0,3.0,60,0.00,,,0.00,weatherlink.com 1.10,2013-07-08 20:06:00,
2013-07-08 15:21:00,89.1,72.0,29.69,WSW,248,2.0,2.0,58,0.00,,,0.00,weatherlink.com 1.10,2013-07-08 20:21:00,
2013-07-08 15:36:00,88.6,74.0,29.69,SSW,207,0.0,3.0,62,0.00,,,0.00,weatherlink.com 1.10,2013-07-08 20:36:00,
2013-07-08 15:51:00,88.1,73.0,29.69,South,186,0.0,2.0,61,0.00,,,0.00,weatherlink.com 1.10,2013-07-08 20:51:00,
2013-07-08 16:51:00,85.1,74.0,29.69,South,190,0.0,4.0,69,0.00,,,0.00,weatherlink.com 1.10,2013-07-08 21:51:00,
2013-07-08 17:06:00,85.6,75.0,29.69,South,183,0.0,2.0,71,0.00,,,0.00,weatherlink.com 1.10,2013-07-08 22:06:00,
2013-07-08 17:21:00,86.0,74.0,29.69,SSE,161,0.0,2.0,67,0.00,,,0.00,weatherlink.com 1.10,2013-07-08 22:21:00,
2013-07-08 17:36:00,85.9,74.0,29.69,SSE,147,0.0,1.0,68,0.00,,,0.00,weatherlink.com 1.10,2013-07-08 22:36:00,
2013-07-08 17:51:00,85.5,74.0,29.69,South,184,0.0,4.0,68,0.00,,,0.00,weatherlink.com 1.10,2013-07-08 22:51:00,
2013-07-08 18:21:00,84.6,73.0,29.69,South,190,0.0,4.0,68,0.00,,,0.00,weatherlink.com 1.10,2013-07-08 23:21:00,
2013-07-08 18:51:00,83.8,73.0,29.69,South,182,0.0,6.0,71,0.00,,,0.00,weatherlink.com 1.10,2013-07-08 23:51:00,
2013-07-08 19:06:00,83.4,74.0,29.68,East,98,0.0,6.0,74,0.00,,,0.00,weatherlink.com 1.10,2013-07-09 00:06:00,
2013-07-08 19:21:00,83.0,75.0,29.67,SE,144,0.0,5.0,77,0.00,,,0.00,weatherlink.com 1.10,2013-07-09 00:21:00,
2013-07-08 19:36:00,82.7,75.0,29.65,South,178,0.0,5.0,77,0.00,,,0.00,weatherlink.com 1.10,2013-07-09 00:36:00,
2013-07-08 19:51:00,83.0,74.0,29.66,SE,132,0.0,4.0,75,0.00,,,0.00,weatherlink.com 1.10,2013-07-09 00:51:00,
2013-07-08 20:21:00,83.2,74.0,29.66,SSE,165,0.0,4.0,74,0.00,,,0.00,weatherlink.com 1.10,2013-07-09 01:21:00,
2013-07-08 20:36:00,83.0,74.0,29.65,SSE,161,0.0,1.0,75,0.00,,,0.00,weatherlink.com 1.10,2013-07-09 01:36:00,
2013-07-08 21:06:00,82.2,74.0,29.66,SSE,163,0.0,0.0,77,0.00,,,0.00,weatherlink.com 1.10,2013-07-09 02:06:00,
2013-07-08 21:36:00,81.6,74.0,29.67,SSE,163,0.0,1.0,78,0.00,,,0.00,weatherlink.com 1.10,2013-07-09 02:36:00,
2013-07-08 22:06:00,82.3,74.0,29.67,SE,136,0.0,1.0,77,0.00,,,0.00,weatherlink.com 1.10,2013-07-09 03:06:00,
2013-07-08 22:21:00,82.2,74.0,29.67,SE,146,0.0,1.0,77,0.00,,,0.00,weatherlink.com 1.10,2013-07-09 03:21:00,
2013-07-08 22:36:00,81.9,74.0,29.67,SSE,154,0.0,1.0,78,0.00,,,0.00,weatherlink.com 1.10,2013-07-09 03:36:00,
2013-07-08 22:51:00,81.8,74.0,29.66,SSE,167,0.0,3.0,78,0.00,,,0.00,weatherlink.com 1.10,2013-07-09 03:51:00,
2013-07-08 23:06:00,81.9,74.0,29.66,ESE,111,0.0,4.0,78,0.00,,,0.00,weatherlink.com 1.10,2013-07-09 04:06:00,
2013-07-08 23:21:00,82.0,74.0,29.66,SSE,159,0.0,3.0,77,0.00,,,0.00,weatherlink.com 1.10,2013-07-09 04:21:00,
2013-07-08 23:36:00,81.9,74.0,29.66,South,175,0.0,2.0,77,0.00,,,0.00,weatherlink.com 1.10,2013-07-09 04:36:00,
2013-07-08 23:51:00,81.8,74.0,29.65,South,169,0.0,3.0,76,0.00,,,0.00,weatherlink.com 1.10,2013-07-09 04:51:00,